Time;durP1;ratioP1;P1;durP2;ratioP2;P2;SDS_P1;SDS_P2;PMS_P1;PMS_P2;Temp;Humidity;BMP_temperature;BMP_pressure;BME280_temperature;BME280_humidity;BME280_pressure;Samples;Min_cycle;Max_cycle;Signal;HPM_P1;HPM_P2
2022/12/07 00:01:05;;;;;;;0.00;0.00;;;4.20;99.90;;;;;;5051288;28;20204;-69
2022/12/07 00:03:31;;;;;;;0.00;0.00;;;4.20;99.90;;;;;;5052810;28;20184;-69
2022/12/07 00:05:59;;;;;;;0.13;0.13;;;4.20;99.90;;;;;;5051783;28;20182;-69
2022/12/07 00:08:25;;;;;;;0.00;0.00;;;4.20;99.90;;;;;;5052708;28;20186;-69
2022/12/07 00:10:51;;;;;;;0.00;0.00;;;4.10;99.90;;;;;;5052172;28;20239;-69
2022/12/07 00:13:16;;;;;;;0.10;0.10;;;4.10;99.90;;;;;;5052702;28;20252;-69
2022/12/07 00:15:42;;;;;;;0.45;0.45;;;4.10;99.90;;;;;;5052163;28;20209;-69
2022/12/07 00:18:07;;;;;;;0.00;0.00;;;4.10;99.90;;;;;;5052339;28;20189;-69
2022/12/07 00:20:33;;;;;;;0.00;0.00;;;4.10;99.90;;;;;;5052421;28;20185;-69
2022/12/07 00:22:59;;;;;;;0.00;0.00;;;4.00;99.90;;;;;;5052095;28;20181;-69
2022/12/07 00:25:25;;;;;;;0.70;0.22;;;4.00;99.90;;;;;;5052430;28;20548;-69
2022/12/07 00:27:51;;;;;;;0.00;0.00;;;4.00;99.90;;;;;;5052113;28;20177;-69
2022/12/07 00:30:17;;;;;;;0.00;0.00;;;4.00;99.90;;;;;;5051764;28;20205;-69
2022/12/07 00:32:43;;;;;;;0.00;0.00;;;4.00;99.90;;;;;;5051673;28;20637;-69
2022/12/07 00:35:08;;;;;;;0.00;0.00;;;4.00;99.90;;;;;;5051711;28;20184;-69
2022/12/07 00:37:34;;;;;;;0.00;0.00;;;4.00;99.90;;;;;;5051815;28;20181;-70
2022/12/07 00:39:59;;;;;;;0.00;0.00;;;4.00;99.90;;;;;;5051855;28;20671;-69
2022/12/07 00:42:25;;;;;;;0.00;0.00;;;4.00;99.90;;;;;;5052244;28;20292;-69
2022/12/07 00:44:50;;;;;;;0.13;0.13;;;3.90;99.90;;;;;;5051690;28;20173;-70
2022/12/07 00:47:16;;;;;;;0.00;0.00;;;3.90;99.90;;;;;;5051871;28;20544;-69
2022/12/07 00:49:41;;;;;;;0.00;0.00;;;3.90;99.90;;;;;;5051900;28;20189;-69
2022/12/07 00:52:07;;;;;;;0.20;0.20;;;3.90;99.90;;;;;;5051974;28;20181;-69
2022/12/07 00:54:32;;;;;;;0.00;0.00;;;3.90;99.90;;;;;;5051755;28;20236;-69
2022/12/07 00:56:58;;;;;;;0.00;0.00;;;3.80;99.90;;;;;;5051623;28;20247;-69
2022/12/07 00:59:24;;;;;;;0.00;0.00;;;3.70;99.90;;;;;;5051649;28;20264;-69
2022/12/07 01:01:49;;;;;;;0.03;0.03;;;3.70;99.90;;;;;;5051723;28;20186;-69
2022/12/07 01:04:15;;;;;;;0.00;0.00;;;3.70;99.90;;;;;;5051719;28;20219;-70
2022/12/07 01:06:41;;;;;;;0.00;0.00;;;3.60;99.90;;;;;;5051431;28;20177;-69
2022/12/07 01:09:06;;;;;;;0.20;0.20;;;3.60;99.90;;;;;;5051707;28;20177;-69
2022/12/07 01:11:32;;;;;;;0.10;0.10;;;3.60;99.90;;;;;;5051380;28;20228;-69
2022/12/07 01:14:00;;;;;;;0.00;0.00;;;3.60;99.90;;;;;;5051523;28;20188;-69
2022/12/07 01:16:27;;;;;;;0.00;0.00;;;3.60;99.90;;;;;;5046258;28;20291;-69
2022/12/07 01:18:55;;;;;;;0.00;0.00;;;3.50;99.90;;;;;;5056669;28;20185;-69
2022/12/07 01:21:23;;;;;;;0.00;0.00;;;3.50;99.90;;;;;;5058134;28;20533;-70
2022/12/07 01:23:50;;;;;;;0.00;0.00;;;3.50;99.90;;;;;;5058126;28;20181;-69
2022/12/07 01:26:22;;;;;;;0.03;0.03;;;3.50;99.90;;;;;;5058280;28;20177;-69
2022/12/07 01:28:47;;;;;;;0.10;0.10;;;3.50;99.90;;;;;;5058035;28;20177;-69
2022/12/07 01:31:18;;;;;;;0.00;0.00;;;3.50;99.90;;;;;;5057996;28;20169;-70
2022/12/07 01:33:46;;;;;;;0.17;0.17;;;3.50;99.90;;;;;;5058115;28;20177;-69
2022/12/07 01:36:18;;;;;;;0.25;0.25;;;3.50;99.90;;;;;;5058009;28;20261;-69
2022/12/07 01:38:45;;;;;;;0.22;0.22;;;3.50;99.90;;;;;;5057842;28;20181;-69
2022/12/07 01:41:11;;;;;;;0.10;0.10;;;3.50;99.90;;;;;;5057986;28;20178;-69
2022/12/07 01:43:37;;;;;;;0.15;0.15;;;3.50;99.90;;;;;;5058092;28;20182;-69
2022/12/07 01:46:04;;;;;;;0.00;0.00;;;3.50;99.90;;;;;;5057991;28;20259;-69
2022/12/07 01:48:48;;;;;;;0.10;0.10;;;3.40;99.90;;;;;;5057953;28;20652;-69
2022/12/07 01:51:15;;;;;;;0.00;0.00;;;3.50;99.90;;;;;;5057831;28;20208;-69
2022/12/07 01:53:45;;;;;;;0.00;0.00;;;3.40;99.90;;;;;;5056357;28;20177;-69
2022/12/07 01:56:16;;;;;;;0.00;0.00;;;3.50;99.90;;;;;;5054901;28;20254;-69
2022/12/07 01:58:42;;;;;;;0.00;0.00;;;3.50;99.90;;;;;;5057897;28;20174;-69
2022/12/07 02:01:08;;;;;;;0.28;0.28;;;3.50;99.90;;;;;;5057643;28;20181;-69
2022/12/07 02:03:40;;;;;;;0.03;0.03;;;3.50;99.90;;;;;;5059151;28;20174;-69
2022/12/07 02:06:07;;;;;;;0.00;0.00;;;3.50;99.90;;;;;;5058223;28;20228;-69
2022/12/07 02:08:33;;;;;;;0.00;0.00;;;3.50;99.90;;;;;;5057682;28;20192;-69
2022/12/07 02:10:59;;;;;;;0.32;0.32;;;3.50;99.90;;;;;;5057358;28;20654;-69
2022/12/07 02:13:28;;;;;;;0.00;0.00;;;3.50;99.90;;;;;;5057798;28;20557;-69
2022/12/07 02:16:23;;;;;;;0.10;0.10;;;3.50;99.90;;;;;;5057796;28;20209;-69
2022/12/07 02:18:55;;;;;;;0.95;0.88;;;3.50;99.90;;;;;;5057555;28;20188;-69
2022/12/07 02:21:28;;;;;;;0.10;0.10;;;3.40;99.90;;;;;;5057503;28;20177;-69
2022/12/07 02:24:10;;;;;;;0.00;0.00;;;3.50;99.90;;;;;;5057769;28;20189;-69
2022/12/07 02:26:58;;;;;;;0.00;0.00;;;3.50;99.90;;;;;;5057627;28;20189;-68
2022/12/07 02:29:42;;;;;;;0.10;0.10;;;3.50;99.90;;;;;;5053842;28;20308;-69
2022/12/07 02:32:10;;;;;;;0.40;0.40;;;3.40;99.90;;;;;;5054364;28;20327;-69
2022/12/07 02:34:57;;;;;;;0.00;0.00;;;3.40;99.90;;;;;;5054549;28;20193;-69
2022/12/07 02:37:39;;;;;;;0.00;0.00;;;3.40;99.90;;;;;;5054119;28;20266;-69
2022/12/07 02:40:12;;;;;;;0.43;0.43;;;3.40;99.90;;;;;;5053091;28;20228;-69
2022/12/07 02:42:45;;;;;;;0.00;0.00;;;3.40;99.90;;;;;;5054102;28;20178;-69
2022/12/07 02:45:15;;;;;;;0.00;0.00;;;3.40;99.90;;;;;;5053883;28;20170;-69
2022/12/07 02:47:41;;;;;;;0.00;0.00;;;3.40;99.90;;;;;;5053987;28;20675;-69
2022/12/07 02:50:07;;;;;;;0.00;0.00;;;3.40;99.90;;;;;;5053927;28;20641;-69
2022/12/07 02:52:33;;;;;;;0.17;0.17;;;3.40;99.90;;;;;;5054343;28;20629;-69
2022/12/07 02:54:58;;;;;;;0.28;0.28;;;3.40;99.90;;;;;;5053807;28;20200;-69
2022/12/07 02:57:38;;;;;;;0.35;0.35;;;3.40;99.90;;;;;;5053530;28;20217;-69
2022/12/07 03:00:18;;;;;;;0.08;0.08;;;3.50;99.90;;;;;;5053933;28;20268;-69
2022/12/07 03:02:59;;;;;;;0.00;0.00;;;3.40;99.90;;;;;;5053702;28;20181;-69
2022/12/07 03:05:49;;;;;;;0.00;0.00;;;3.40;99.90;;;;;;5053684;28;20187;-69
2022/12/07 03:08:27;;;;;;;0.10;0.10;;;3.40;99.90;;;;;;5053949;28;20216;-69
2022/12/07 03:11:03;;;;;;;0.00;0.00;;;3.40;99.90;;;;;;5053627;28;20229;-69
2022/12/07 03:13:57;;;;;;;0.00;0.00;;;3.40;99.90;;;;;;5053501;28;20655;-69
2022/12/07 03:16:37;;;;;;;0.00;0.00;;;3.40;99.90;;;;;;5052384;28;20237;-69
2022/12/07 03:19:17;;;;;;;0.00;0.00;;;3.40;99.90;;;;;;5053282;28;20789;-69
2022/12/07 03:22:01;;;;;;;0.00;0.00;;;3.40;99.90;;;;;;5053524;28;20189;-69
2022/12/07 03:24:31;;;;;;;0.13;0.13;;;3.40;99.90;;;;;;5052192;28;20539;-69
2022/12/07 03:27:05;;;;;;;0.00;0.00;;;3.30;99.90;;;;;;5052325;28;20239;-69
2022/12/07 03:29:39;;;;;;;0.13;0.08;;;3.40;99.90;;;;;;5052835;28;20184;-69
2022/12/07 03:32:13;;;;;;;0.47;0.47;;;3.30;99.90;;;;;;5052998;28;20271;-69
2022/12/07 03:34:59;;;;;;;0.43;0.43;;;3.30;99.90;;;;;;5053213;28;20186;-69
2022/12/07 03:37:36;;;;;;;0.00;0.00;;;3.30;99.90;;;;;;5050950;28;20307;-69
2022/12/07 03:40:42;;;;;;;0.00;0.00;;;3.30;99.90;;;;;;5052957;28;20184;-69
2022/12/07 03:43:08;;;;;;;0.00;0.00;;;3.20;99.90;;;;;;5045089;28;20281;-69
2022/12/07 03:45:43;;;;;;;0.10;0.10;;;3.20;99.90;;;;;;5052567;28;20598;-69
2022/12/07 03:48:37;;;;;;;0.00;0.00;;;3.20;99.90;;;;;;5053055;28;20185;-69
2022/12/07 03:51:08;;;;;;;0.75;0.75;;;3.20;99.90;;;;;;5052643;28;20546;-68
2022/12/07 03:53:46;;;;;;;0.28;0.28;;;3.20;99.90;;;;;;5051937;28;20582;-69
2022/12/07 03:56:12;;;;;;;0.00;0.00;;;3.10;99.90;;;;;;5052498;28;20218;-69
2022/12/07 03:58:39;;;;;;;0.00;0.00;;;3.10;99.90;;;;;;5052691;28;20181;-69
2022/12/07 04:01:04;;;;;;;0.00;0.00;;;3.10;99.90;;;;;;5052411;28;20811;-69
2022/12/07 04:03:30;;;;;;;0.00;0.00;;;3.10;99.90;;;;;;5051791;28;20272;-69
2022/12/07 04:05:56;;;;;;;0.00;0.00;;;3.10;99.90;;;;;;5052018;28;20618;-69
2022/12/07 04:08:21;;;;;;;0.00;0.00;;;3.10;99.90;;;;;;5052346;28;20174;-69
2022/12/07 04:10:47;;;;;;;0.00;0.00;;;3.10;99.90;;;;;;5050602;28;20225;-69
2022/12/07 04:13:12;;;;;;;0.03;0.03;;;3.10;99.90;;;;;;5052347;28;20282;-69
2022/12/07 04:15:38;;;;;;;0.00;0.00;;;3.10;99.90;;;;;;5052232;28;20213;-69
2022/12/07 04:18:03;;;;;;;0.08;0.08;;;3.10;99.90;;;;;;5051996;28;20185;-69
2022/12/07 04:20:29;;;;;;;0.00;0.00;;;3.10;99.90;;;;;;5052330;28;20189;-69
2022/12/07 04:22:55;;;;;;;0.00;0.00;;;3.10;99.90;;;;;;5051878;28;20636;-69
2022/12/07 04:25:20;;;;;;;0.05;0.05;;;3.10;99.90;;;;;;5052044;28;20177;-69
2022/12/07 04:27:46;;;;;;;0.17;0.15;;;3.10;99.90;;;;;;5051546;28;20181;-69
2022/12/07 04:30:11;;;;;;;0.00;0.00;;;3.10;99.90;;;;;;5051397;28;20178;-70
2022/12/07 04:32:37;;;;;;;0.08;0.08;;;3.10;99.90;;;;;;5051601;28;20177;-69
2022/12/07 04:35:03;;;;;;;0.00;0.00;;;3.00;99.90;;;;;;5051941;28;20184;-72
2022/12/07 04:37:29;;;;;;;0.10;0.10;;;3.00;99.90;;;;;;5051929;28;20216;-72
2022/12/07 04:39:54;;;;;;;0.00;0.00;;;3.00;99.90;;;;;;5051787;28;20235;-67
2022/12/07 04:42:20;;;;;;;0.00;0.00;;;3.00;99.90;;;;;;5051963;28;20182;-63
2022/12/07 04:44:45;;;;;;;0.00;0.00;;;3.00;99.90;;;;;;5051820;28;20181;-66
2022/12/07 04:47:11;;;;;;;0.00;0.00;;;3.10;99.90;;;;;;5052049;28;20196;-65
2022/12/07 04:49:36;;;;;;;0.00;0.00;;;3.10;99.90;;;;;;5051722;28;20186;-63
2022/12/07 04:52:02;;;;;;;0.10;0.10;;;3.10;99.90;;;;;;5050815;28;20182;-65
2022/12/07 04:54:28;;;;;;;0.05;0.05;;;3.10;99.90;;;;;;5051500;28;20185;-64
2022/12/07 04:56:54;;;;;;;0.05;0.05;;;3.10;99.90;;;;;;5051106;28;20228;-64
2022/12/07 04:59:19;;;;;;;0.00;0.00;;;3.10;99.90;;;;;;5052116;28;20193;-62
2022/12/07 05:01:45;;;;;;;0.00;0.00;;;3.10;99.90;;;;;;5051188;28;20236;-61
2022/12/07 05:04:10;;;;;;;0.00;0.00;;;3.10;99.90;;;;;;5051580;28;20592;-65
2022/12/07 05:06:36;;;;;;;0.00;0.00;;;3.10;99.90;;;;;;5048170;28;20272;-66
2022/12/07 05:09:02;;;;;;;0.00;0.00;;;3.10;99.90;;;;;;5050949;28;20304;-66
2022/12/07 05:11:40;;;;;;;0.17;0.17;;;3.10;99.90;;;;;;5051105;28;20275;-66
2022/12/07 05:14:18;;;;;;;0.00;0.00;;;3.10;99.90;;;;;;5050819;28;20235;-67
2022/12/07 05:16:46;;;;;;;0.00;0.00;;;3.10;99.90;;;;;;5051298;28;20209;-66
2022/12/07 05:19:12;;;;;;;0.10;0.10;;;3.10;99.90;;;;;;5051490;28;20517;-65
2022/12/07 05:21:39;;;;;;;0.00;0.00;;;3.10;99.90;;;;;;5042953;28;20250;-65
2022/12/07 05:24:05;;;;;;;0.08;0.08;;;3.20;99.90;;;;;;5051521;28;20173;-65
2022/12/07 05:26:31;;;;;;;0.00;0.00;;;3.20;99.90;;;;;;5051426;28;20185;-65
2022/12/07 05:28:58;;;;;;;0.00;0.00;;;3.30;99.90;;;;;;5051337;28;20182;-65
2022/12/07 05:31:24;;;;;;;0.00;0.00;;;3.20;99.90;;;;;;5051476;28;20190;-66
2022/12/07 05:33:50;;;;;;;0.13;0.13;;;3.20;99.90;;;;;;5050368;28;20213;-65
2022/12/07 05:36:15;;;;;;;0.00;0.00;;;3.20;99.90;;;;;;5051249;28;20271;-65
2022/12/07 05:38:41;;;;;;;0.15;0.15;;;3.10;99.90;;;;;;5051422;28;20639;-65
2022/12/07 05:41:07;;;;;;;0.25;0.25;;;3.10;99.90;;;;;;5051435;28;20287;-65
2022/12/07 05:43:33;;;;;;;0.10;0.10;;;3.10;99.90;;;;;;5051117;28;20266;-66
2022/12/07 05:45:59;;;;;;;0.22;0.17;;;3.10;99.90;;;;;;5051584;28;20182;-66
2022/12/07 05:48:25;;;;;;;0.15;0.15;;;3.10;99.90;;;;;;5051392;28;20355;-66
2022/12/07 05:50:51;;;;;;;0.10;0.10;;;3.10;99.90;;;;;;5050908;28;20308;-66
2022/12/07 05:53:17;;;;;;;0.20;0.20;;;3.10;99.90;;;;;;5051235;28;20193;-65
2022/12/07 05:55:43;;;;;;;0.00;0.00;;;3.10;99.90;;;;;;5051180;28;20237;-65
2022/12/07 06:00:57;;;;;;;0.00;0.00;;;3.10;99.90;;;;;;5051123;28;20191;-65
2022/12/07 06:03:23;;;;;;;0.43;0.10;;;3.10;99.90;;;;;;5051093;28;20331;-65
2022/12/07 06:05:48;;;;;;;0.10;0.10;;;3.20;99.90;;;;;;5052931;28;20272;-66
2022/12/07 06:08:15;;;;;;;0.10;0.05;;;3.20;99.90;;;;;;5055212;28;20174;-65
2022/12/07 06:10:41;;;;;;;0.10;0.10;;;3.20;99.90;;;;;;5054568;28;20301;-65
2022/12/07 06:13:07;;;;;;;0.08;0.08;;;3.10;99.90;;;;;;5054974;28;20184;-65
2022/12/07 06:15:35;;;;;;;0.00;0.00;;;3.10;99.90;;;;;;5055045;28;20209;-65
2022/12/07 06:18:00;;;;;;;0.82;0.30;;;3.10;99.90;;;;;;5054700;28;20322;-65
2022/12/07 06:20:25;;;;;;;0.00;0.00;;;3.00;99.90;;;;;;5054473;28;20188;-65
2022/12/07 06:22:51;;;;;;;0.00;0.00;;;3.00;99.90;;;;;;5054485;28;20211;-65
2022/12/07 06:25:17;;;;;;;0.00;0.00;;;3.00;99.90;;;;;;5054561;28;20541;-65
2022/12/07 06:27:42;;;;;;;0.00;0.00;;;3.00;99.90;;;;;;5054455;28;20189;-65
2022/12/07 06:30:08;;;;;;;0.20;0.20;;;2.90;99.90;;;;;;5054693;28;20185;-65
2022/12/07 06:32:36;;;;;;;0.03;0.03;;;2.90;99.90;;;;;;5054223;28;20186;-65
2022/12/07 06:35:01;;;;;;;0.00;0.00;;;2.90;99.90;;;;;;5054410;28;20221;-65
2022/12/07 06:37:27;;;;;;;0.00;0.00;;;3.00;99.90;;;;;;5054436;28;20697;-65
2022/12/07 06:39:52;;;;;;;0.20;0.17;;;3.00;99.90;;;;;;5054320;28;20232;-65
2022/12/07 06:42:18;;;;;;;0.13;0.13;;;3.00;99.90;;;;;;5053115;28;20223;-66
2022/12/07 06:44:43;;;;;;;0.10;0.10;;;3.00;99.90;;;;;;5054033;28;20224;-66
2022/12/07 06:47:09;;;;;;;0.00;0.00;;;3.10;99.90;;;;;;5054451;28;20269;-65
2022/12/07 06:49:35;;;;;;;0.25;0.25;;;3.10;99.90;;;;;;5054219;28;20265;-66
2022/12/07 06:52:00;;;;;;;0.00;0.00;;;3.10;99.90;;;;;;5054156;28;20189;-65
2022/12/07 06:54:26;;;;;;;0.00;0.00;;;3.10;99.90;;;;;;5054250;28;20185;-65
2022/12/07 06:56:51;;;;;;;0.35;0.30;;;3.10;99.90;;;;;;5053707;28;20581;-65
2022/12/07 06:59:17;;;;;;;0.10;0.10;;;3.10;99.90;;;;;;5053945;28;20182;-65
2022/12/07 07:01:42;;;;;;;0.00;0.00;;;3.00;99.90;;;;;;5053812;28;20247;-65
2022/12/07 07:04:08;;;;;;;0.00;0.00;;;3.00;99.90;;;;;;5053959;28;20231;-65
2022/12/07 07:06:34;;;;;;;0.20;0.20;;;3.00;99.90;;;;;;5054181;28;20574;-65
2022/12/07 07:08:59;;;;;;;0.00;0.00;;;3.00;99.90;;;;;;5053675;28;20722;-65
2022/12/07 07:11:25;;;;;;;0.82;0.10;;;2.90;99.90;;;;;;5053756;28;20228;-65
2022/12/07 07:13:50;;;;;;;0.20;0.20;;;2.90;99.90;;;;;;5053804;28;20185;-65
2022/12/07 07:16:16;;;;;;;0.00;0.00;;;2.90;99.90;;;;;;5053456;28;20209;-65
2022/12/07 07:18:42;;;;;;;0.00;0.00;;;2.90;99.90;;;;;;5053473;28;20391;-65
2022/12/07 07:21:07;;;;;;;0.20;0.20;;;2.90;99.90;;;;;;5053690;28;20178;-65
2022/12/07 07:23:33;;;;;;;0.00;0.00;;;2.90;99.90;;;;;;5053684;28;20181;-66
2022/12/07 07:25:58;;;;;;;0.00;0.00;;;2.90;99.90;;;;;;5053501;28;20210;-65
2022/12/07 07:28:24;;;;;;;0.08;0.08;;;2.90;99.90;;;;;;5053599;28;20227;-65
2022/12/07 07:30:50;;;;;;;0.08;0.08;;;2.90;99.90;;;;;;5053258;28;20629;-65
2022/12/07 07:33:15;;;;;;;0.05;0.05;;;3.00;99.90;;;;;;5053421;28;20181;-65
2022/12/07 07:35:41;;;;;;;0.20;0.20;;;3.00;99.90;;;;;;5053076;28;20342;-65
2022/12/07 07:38:06;;;;;;;0.05;0.05;;;3.00;99.90;;;;;;5053328;28;20264;-65
2022/12/07 07:40:32;;;;;;;0.13;0.13;;;3.00;99.90;;;;;;5053146;28;20185;-65
2022/12/07 07:42:58;;;;;;;0.10;0.10;;;3.00;99.90;;;;;;5053001;28;20177;-65
2022/12/07 07:45:25;;;;;;;1.17;1.08;;;3.00;99.90;;;;;;5053276;28;20283;-65
2022/12/07 07:47:51;;;;;;;0.00;0.00;;;3.00;99.90;;;;;;5053065;28;20184;-66
2022/12/07 07:50:17;;;;;;;0.10;0.10;;;3.00;99.90;;;;;;5053105;28;20560;-65
2022/12/07 07:52:43;;;;;;;0.00;0.00;;;3.00;99.90;;;;;;5052878;28;20181;-65
2022/12/07 07:55:09;;;;;;;1.30;0.20;;;3.00;99.90;;;;;;5053122;28;20598;-65
2022/12/07 07:57:36;;;;;;;0.20;0.20;;;3.10;99.90;;;;;;5051600;28;20228;-65
2022/12/07 08:00:05;;;;;;;0.90;0.90;;;3.20;99.90;;;;;;5053223;28;20235;-65
2022/12/07 08:02:31;;;;;;;0.00;0.00;;;3.30;99.90;;;;;;5052933;28;20178;-66
2022/12/07 08:04:56;;;;;;;0.00;0.00;;;3.30;99.90;;;;;;5052418;28;20246;-65
2022/12/07 08:07:22;;;;;;;0.05;0.05;;;3.40;99.90;;;;;;5052804;28;20191;-65
2022/12/07 08:09:47;;;;;;;0.05;0.05;;;3.40;99.90;;;;;;5052430;28;20191;-65
2022/12/07 08:12:13;;;;;;;0.00;0.00;;;3.40;99.90;;;;;;5052555;28;20261;-65
2022/12/07 08:14:39;;;;;;;0.00;0.00;;;3.50;99.90;;;;;;5052612;28;20227;-65
2022/12/07 08:17:04;;;;;;;0.03;0.03;;;3.50;99.90;;;;;;5052257;28;20278;-66
2022/12/07 08:19:30;;;;;;;0.00;0.00;;;3.50;99.90;;;;;;5052562;28;20220;-66
2022/12/07 08:21:56;;;;;;;0.00;0.00;;;3.50;99.90;;;;;;5052406;28;20221;-66
2022/12/07 08:24:22;;;;;;;0.00;0.00;;;3.50;99.90;;;;;;5052410;28;20264;-65
2022/12/07 08:26:49;;;;;;;0.10;0.10;;;3.60;99.90;;;;;;5047373;28;20240;-65
2022/12/07 08:29:15;;;;;;;0.10;0.10;;;3.60;99.90;;;;;;5052202;28;20174;-65
2022/12/07 08:31:40;;;;;;;0.10;0.10;;;3.60;99.90;;;;;;5052473;28;20177;-66
2022/12/07 08:34:06;;;;;;;0.00;0.00;;;3.70;99.90;;;;;;5052238;28;20279;-66
2022/12/07 08:36:31;;;;;;;0.00;0.00;;;3.70;99.90;;;;;;5050391;28;20371;-66
2022/12/07 08:38:57;;;;;;;0.00;0.00;;;3.70;99.90;;;;;;5051168;28;20771;-65
2022/12/07 08:41:22;;;;;;;0.00;0.00;;;3.70;99.90;;;;;;5051131;28;20194;-66
2022/12/07 08:43:48;;;;;;;0.30;0.30;;;3.70;99.90;;;;;;5052405;28;20641;-66
2022/12/07 08:46:20;;;;;;;0.00;0.00;;;3.70;99.90;;;;;;5052356;28;20177;-66
2022/12/07 08:49:15;;;;;;;0.00;0.00;;;3.70;99.90;;;;;;5052302;28;20172;-65
2022/12/07 08:51:41;;;;;;;0.00;0.00;;;3.80;99.90;;;;;;5050864;28;20181;-65
2022/12/07 08:54:11;;;;;;;0.00;0.00;;;3.80;99.90;;;;;;5052142;28;20179;-65
2022/12/07 08:56:37;;;;;;;0.00;0.00;;;3.80;99.90;;;;;;5052032;28;20213;-65
2022/12/07 08:59:04;;;;;;;0.00;0.00;;;3.80;99.90;;;;;;5054418;28;20546;-66
2022/12/07 09:01:29;;;;;;;0.10;0.10;;;3.80;99.90;;;;;;5052087;28;20181;-66
2022/12/07 09:03:55;;;;;;;0.00;0.00;;;3.90;99.90;;;;;;5051890;28;20187;-65
2022/12/07 09:06:21;;;;;;;0.38;0.38;;;3.90;99.90;;;;;;5051945;28;20591;-66
2022/12/07 09:08:49;;;;;;;0.00;0.00;;;4.00;99.90;;;;;;5051927;28;20590;-65
2022/12/07 09:11:15;;;;;;;0.35;0.35;;;4.10;99.90;;;;;;5051679;28;20700;-66
2022/12/07 09:13:41;;;;;;;0.10;0.10;;;4.30;99.90;;;;;;5051928;28;20226;-66
2022/12/07 09:16:06;;;;;;;0.00;0.00;;;4.40;99.90;;;;;;5051834;28;20597;-66
2022/12/07 09:18:32;;;;;;;0.10;0.10;;;4.50;99.90;;;;;;5047414;28;20268;-66
2022/12/07 09:20:57;;;;;;;0.00;0.00;;;4.60;99.90;;;;;;5031833;28;20174;-66
2022/12/07 09:23:23;;;;;;;0.50;0.50;;;4.60;99.90;;;;;;5032028;28;20182;-66
2022/12/07 09:25:48;;;;;;;0.30;0.30;;;4.60;99.90;;;;;;5043691;28;20181;-66
2022/12/07 09:28:14;;;;;;;0.00;0.00;;;4.50;99.90;;;;;;5051672;28;20170;-66
2022/12/07 09:30:48;;;;;;;0.00;0.00;;;4.50;99.90;;;;;;5051484;28;20181;-66
2022/12/07 09:33:15;;;;;;;0.00;0.00;;;4.50;99.90;;;;;;5051821;28;20263;-66
2022/12/07 09:35:48;;;;;;;0.10;0.10;;;4.40;99.90;;;;;;5051458;28;20553;-66
2022/12/07 09:38:14;;;;;;;0.08;0.08;;;4.40;99.90;;;;;;5052167;28;20213;-66
2022/12/07 09:40:42;;;;;;;0.00;0.00;;;4.50;99.90;;;;;;5055886;28;20644;-67
2022/12/07 09:43:14;;;;;;;0.20;0.20;;;4.50;99.90;;;;;;5055881;28;20267;-67
2022/12/07 09:45:40;;;;;;;0.00;0.00;;;4.60;99.90;;;;;;5055776;28;20706;-62
2022/12/07 09:48:18;;;;;;;0.00;0.00;;;4.60;99.90;;;;;;5055785;28;20217;-65
2022/12/07 09:50:44;;;;;;;0.30;0.30;;;4.50;99.90;;;;;;5054356;28;20540;-63
2022/12/07 09:53:30;;;;;;;0.03;0.03;;;4.60;99.90;;;;;;5056026;28;20181;-62
2022/12/07 09:55:56;;;;;;;0.00;0.00;;;4.60;99.90;;;;;;5055132;28;20287;-64
2022/12/07 09:58:26;;;;;;;0.00;0.00;;;4.60;99.90;;;;;;5055519;28;20181;-64
2022/12/07 10:00:57;;;;;;;0.00;0.00;;;4.70;99.90;;;;;;5055693;28;20173;-64
2022/12/07 10:03:22;;;;;;;0.00;0.00;;;4.70;99.90;;;;;;5055494;28;20184;-65
2022/12/07 10:05:51;;;;;;;0.00;0.00;;;4.70;99.90;;;;;;5055312;28;20580;-65
2022/12/07 10:08:17;;;;;;;0.90;0.28;;;4.80;99.90;;;;;;5055394;28;20181;-65
2022/12/07 10:10:44;;;;;;;0.00;0.00;;;4.80;99.90;;;;;;5053956;28;20304;-65
2022/12/07 10:13:20;;;;;;;0.03;0.03;;;4.80;99.90;;;;;;5054113;28;20177;-65
2022/12/07 10:15:57;;;;;;;0.00;0.00;;;4.70;99.90;;;;;;5055079;28;20232;-65
2022/12/07 10:18:44;;;;;;;0.00;0.00;;;4.70;99.90;;;;;;5055128;28;20185;-65
2022/12/07 10:21:12;;;;;;;0.00;0.00;;;4.60;99.90;;;;;;5055136;28;20174;-65
2022/12/07 10:23:40;;;;;;;0.00;0.00;;;4.60;99.90;;;;;;5055001;28;20185;-65
2022/12/07 10:26:27;;;;;;;0.00;0.00;;;4.70;99.90;;;;;;5054846;28;20178;-65
2022/12/07 10:28:53;;;;;;;0.00;0.00;;;4.80;99.90;;;;;;5055004;28;20197;-65
2022/12/07 10:31:22;;;;;;;0.00;0.00;;;4.80;99.90;;;;;;5054954;28;20180;-65
2022/12/07 10:33:56;;;;;;;0.30;0.30;;;4.80;99.90;;;;;;5054828;28;20177;-64
2022/12/07 10:36:38;;;;;;;0.08;0.08;;;4.70;99.90;;;;;;5054790;28;20219;-65
2022/12/07 10:39:11;;;;;;;0.00;0.00;;;4.60;99.90;;;;;;5054847;28;20676;-64
2022/12/07 10:41:56;;;;;;;0.10;0.10;;;4.50;99.90;;;;;;5055814;28;20189;-65
2022/12/07 10:44:25;;;;;;;0.00;0.00;;;4.40;99.90;;;;;;5054785;28;20264;-65
2022/12/07 10:47:21;;;;;;;0.30;0.30;;;4.40;99.90;;;;;;5054605;28;20178;-65
2022/12/07 10:50:14;;;;;;;0.00;0.00;;;4.40;99.90;;;;;;5054279;28;20211;-65
2022/12/07 10:53:04;;;;;;;0.00;0.00;;;4.40;99.90;;;;;;5054301;28;20180;-65
2022/12/07 10:55:56;;;;;;;0.00;0.00;;;4.40;99.90;;;;;;5054554;28;20589;-65
2022/12/07 10:58:32;;;;;;;0.00;0.00;;;4.50;99.90;;;;;;5054485;28;20178;-65
2022/12/07 11:01:20;;;;;;;0.00;0.00;;;4.50;99.90;;;;;;5054247;28;20181;-65
2022/12/07 11:04:24;;;;;;;0.00;0.00;;;4.60;99.90;;;;;;5054026;28;20185;-65
2022/12/07 11:07:09;;;;;;;0.00;0.00;;;4.60;99.90;;;;;;5053067;28;20185;-65
2022/12/07 11:09:45;;;;;;;0.00;0.00;;;4.70;99.90;;;;;;5054227;28;20572;-65
2022/12/07 11:12:20;;;;;;;0.20;0.20;;;4.70;99.90;;;;;;5054095;28;20220;-65
2022/12/07 11:15:04;;;;;;;0.00;0.00;;;4.70;99.90;;;;;;5052754;28;20181;-65
2022/12/07 11:17:52;;;;;;;0.10;0.10;;;4.70;99.90;;;;;;5054178;28;20251;-65
2022/12/07 11:20:39;;;;;;;0.05;0.05;;;4.70;99.90;;;;;;5034262;28;20182;-65
2022/12/07 11:23:21;;;;;;;0.00;0.00;;;4.70;99.90;;;;;;5034094;28;20308;-65
2022/12/07 11:26:05;;;;;;;0.00;0.00;;;4.80;99.90;;;;;;5049902;28;20182;-63
2022/12/07 11:28:37;;;;;;;0.00;0.00;;;4.80;99.90;;;;;;5053443;28;20599;-62
2022/12/07 11:31:41;;;;;;;0.00;0.00;;;4.80;99.90;;;;;;5053735;28;20201;-62
2022/12/07 11:34:19;;;;;;;0.00;0.00;;;4.90;99.90;;;;;;5038857;28;20587;-65
2022/12/07 11:36:48;;;;;;;0.00;0.00;;;5.00;99.90;;;;;;5053379;28;20217;-65
2022/12/07 11:39:28;;;;;;;0.00;0.00;;;5.10;99.90;;;;;;5053401;28;20181;-65
2022/12/07 11:42:14;;;;;;;0.00;0.00;;;5.20;99.90;;;;;;5052867;28;20182;-65
2022/12/07 11:44:53;;;;;;;0.22;0.22;;;5.20;99.90;;;;;;5042860;28;20264;-65
2022/12/07 11:47:38;;;;;;;0.00;0.00;;;5.30;99.90;;;;;;5053544;28;20239;-65
2022/12/07 11:50:31;;;;;;;0.00;0.00;;;5.40;99.90;;;;;;5053461;28;20169;-65
2022/12/07 11:53:02;;;;;;;0.00;0.00;;;5.40;99.90;;;;;;5053450;28;20628;-65
2022/12/07 11:55:57;;;;;;;0.00;0.00;;;5.30;99.90;;;;;;5053261;28;20233;-65
2022/12/07 11:58:40;;;;;;;0.52;0.28;;;5.40;99.90;;;;;;5051012;28;20660;-65
2022/12/07 12:01:22;;;;;;;0.20;0.20;;;5.50;99.90;;;;;;5052472;28;20642;-65
2022/12/07 12:03:51;;;;;;;0.30;0.30;;;5.60;99.90;;;;;;5050339;28;20205;-66
2022/12/07 12:06:16;;;;;;;0.00;0.00;;;5.60;99.90;;;;;;5053139;28;20162;-65
2022/12/07 12:09:13;;;;;;;0.00;0.00;;;5.70;99.90;;;;;;5052958;28;20174;-66
2022/12/07 12:11:57;;;;;;;0.05;0.05;;;5.70;99.90;;;;;;5052623;28;20213;-66
2022/12/07 12:14:53;;;;;;;0.00;0.00;;;5.80;99.90;;;;;;5053260;28;20192;-65
2022/12/07 12:17:52;;;;;;;0.00;0.00;;;5.70;99.90;;;;;;5053138;28;20244;-65
2022/12/07 12:20:29;;;;;;;0.00;0.00;;;5.60;99.90;;;;;;5046928;28;20178;-65
2022/12/07 12:23:35;;;;;;;0.00;0.00;;;5.50;99.90;;;;;;5052620;28;20575;-65
2022/12/07 12:26:03;;;;;;;0.00;0.00;;;5.40;99.90;;;;;;5053828;28;20675;-65
2022/12/07 12:28:36;;;;;;;0.03;0.03;;;5.40;99.90;;;;;;5052784;28;20530;-66
2022/12/07 12:31:20;;;;;;;0.00;0.00;;;5.30;99.90;;;;;;5061121;28;20643;-65
2022/12/07 12:33:53;;;;;;;0.00;0.00;;;5.30;99.90;;;;;;5072491;28;20192;-65
2022/12/07 12:36:39;;;;;;;0.00;0.00;;;5.30;99.90;;;;;;5068056;28;20220;-65
2022/12/07 12:39:08;;;;;;;0.10;0.10;;;5.40;99.90;;;;;;5043763;28;20268;-69
2022/12/07 12:41:38;;;;;;;0.10;0.10;;;5.40;99.90;;;;;;5052309;28;20181;-65
2022/12/07 12:44:29;;;;;;;0.17;0.17;;;5.40;99.90;;;;;;5051854;28;20254;-64
2022/12/07 12:47:01;;;;;;;0.00;0.00;;;5.40;99.90;;;;;;5051895;28;20189;-66
2022/12/07 12:49:45;;;;;;;0.00;0.00;;;5.20;99.90;;;;;;5050934;28;20170;-66
2022/12/07 12:52:14;;;;;;;0.00;0.00;;;5.20;99.90;;;;;;5052391;28;20540;-66
2022/12/07 12:55:09;;;;;;;0.00;0.00;;;5.20;99.90;;;;;;5051775;28;20174;-66
2022/12/07 12:57:35;;;;;;;0.00;0.00;;;5.20;99.90;;;;;;5051516;28;20213;-65
2022/12/07 13:00:22;;;;;;;0.00;0.00;;;5.20;99.90;;;;;;5051890;28;20181;-64
2022/12/07 13:02:56;;;;;;;0.00;0.00;;;5.20;99.90;;;;;;5039653;28;20178;-64
2022/12/07 13:05:24;;;;;;;0.00;0.00;;;5.10;99.90;;;;;;5051946;28;20185;-64
2022/12/07 13:08:05;;;;;;;0.20;0.20;;;5.00;99.90;;;;;;5051810;28;20205;-63
2022/12/07 13:10:43;;;;;;;0.10;0.10;;;5.00;99.90;;;;;;5051641;28;20575;-64
2022/12/07 13:13:14;;;;;;;0.10;0.10;;;5.00;99.90;;;;;;5051338;28;20205;-63
2022/12/07 13:15:42;;;;;;;0.00;0.00;;;5.00;99.90;;;;;;5050715;28;20178;-63
2022/12/07 13:18:08;;;;;;;0.20;0.20;;;5.00;99.90;;;;;;5051749;28;20178;-63
2022/12/07 13:20:50;;;;;;;0.00;0.00;;;5.00;99.90;;;;;;5051799;28;20651;-63